Humidity-temperature Sensor

Selected Measurement Type: Air Temperature

 
Air Temperature [°C]     6 entries per hour
Showing data from 12/2/2014 (00:00:00 Z) to 12/1/2014 (00:01:00 Z)
Previous Next [ Day | 3-Days | 7-Days ]
First Last
Prev [ Day | 3-Days | 7-Days ] Next
First Last

Start Time:     :
End Time:     :     
Time (in GMT) :00 :50 :40 :30 :20 :10
Previous Next [ Day | 3-Days | 7-Days ]
First Last
Prev [ Day | 3-Days | 7-Days ] Next
First Last


123 => good data
MM => data is determined as missing
-- => data not received/configured
Back to Top Back to Top
12/2/2014 00:00 to 23:10 21.91 21.97 22.08 21.91 22.24 22.29
12/1/2014 23:00 to 22:10 22.32 22.40 22.33 22.27 22.30 22.06
12/1/2014 22:00 to 21:10 22.19 21.96 21.94 21.95 22.08 22.10
12/1/2014 21:00 to 20:10 22.02 21.98 21.99 22.04 21.99 21.93
12/1/2014 20:00 to 19:10 21.99 21.93 21.89 21.93 21.90 21.92
12/1/2014 19:00 to 18:10 21.91 21.94 21.98 21.95 21.94 21.97
12/1/2014 18:00 to 17:10 21.94 21.89 21.95 21.97 21.95 21.95
12/1/2014 17:00 to 16:10 21.96 21.92 21.93 21.94 21.91 21.92
12/1/2014 16:00 to 15:10 21.89 21.88 21.72 21.71 21.69 21.72
12/1/2014 15:00 to 14:10 21.71 21.68 21.68 21.66 21.66 21.62
12/1/2014 14:00 to 13:10 21.64 21.73 21.55 21.60 21.47 21.39
12/1/2014 13:00 to 12:10 21.29 21.19 21.23 21.24 21.15 21.09
12/1/2014 12:00 to 11:10 21.14 21.38 21.42 21.34 21.32 21.35
12/1/2014 11:00 to 10:10 21.32 21.39 21.43 21.37 21.38 21.36
12/1/2014 10:00 to 9:10 21.41 21.41 21.28 21.27 21.07 21.19
12/1/2014 09:00 to 8:10 21.29 21.40 21.35 21.32 21.34 21.49
12/1/2014 08:00 to 7:10 21.52 21.50 21.49 21.51 21.52 21.46
12/1/2014 07:00 to 6:10 21.43 21.39 21.42 21.42 21.40 21.33
12/1/2014 06:00 to 5:10 21.30 21.27 21.29 21.35 21.43 21.51
12/1/2014 05:00 to 4:10 21.45 21.77 21.90 21.94 21.94 21.92
12/1/2014 04:00 to 3:10 21.98 22.00 22.00 21.97 22.01 22.02
12/1/2014 03:00 to 2:10 22.04 22.04 21.99 22.05 22.09 22.08
12/1/2014 02:00 to 1:10 22.02 22.04 22.02 22.04 22.04 21.99
12/1/2014 01:00 to 0:10 21.94 22.01 22.03 22.06 22.08 22.08